Flight Track Log - Related Links

Times and Time Zones

All times are in EDT time to prevent confusion due to time zone crossing. See the ASQ6115 flight status page for this flight to view local times or setup timezone preferences in your user account.

Time Position Orientation Groundspeed Altitude Reporting Facility
EDT Latitude Longitude Course Direction KTS MPH feet Rate Location/Type
Mon 03:40:33 PM 26.1589 -98.2008 91° East 159 183 1,800  Level Houston Center
Mon 03:42:14 PM 26.2397 -98.1214 41° Northeast 230 265 4,700 1,707 Climbing Houston Center
Mon 03:42:29 PM 26.2522 -98.1094 41° Northeast 254 292 5,100 2,129 Climbing Houston Center
Mon 03:43:16 PM 26.2992 -98.0578 45° Northeast 269 310 6,900 2,037 Climbing Houston Center
Mon 03:44:18 PM 26.3544 -97.9986 44° Northeast 273 314 8,800 1,645 Climbing Houston Center
Mon 03:45:00 PM 26.5665 -98.0427 22° Northeast  Level FlightAware Approximate
Mon 03:45:20 PM 26.4139 -97.9356 44° Northeast 291 335 10,300  Level Houston Center
Mon 03:46:22 PM 26.4844 -97.8589 44° Northeast 323 372 11,000 823 Climbing Houston Center
Mon 03:47:24 PM 26.5561 -97.7797 45° Northeast 355 409 12,000 1,065 Climbing Houston Center
Mon 03:48:26 PM 26.6314 -97.6956 45° Northeast 377 434 13,200 1,056 Climbing Houston Center
Mon 03:49:29 PM 26.7031 -97.6136 46° Northeast 369 425 14,200 864 Climbing Houston Center
Mon 03:50:31 PM 26.7742 -97.5392 43° Northeast 365 420 15,000 871 Climbing Houston Center
Mon 03:51:33 PM 26.8956 -97.5219 North 403 464 16,000 968 Climbing Houston Center
Mon 03:52:35 PM 27.0003 -97.5122 North 381 438 17,000 1,016 Climbing Houston Center
Mon 03:53:37 PM 27.1144 -97.5050 North 363 418 18,100 1,016 Climbing Houston Center
Mon 03:54:39 PM 27.2078 -97.4981 North 355 409 19,100 968 Climbing Houston Center
Mon 03:55:41 PM 27.3181 -97.4889 North 376 433 20,100 960 Climbing Houston Center
Mon 03:56:44 PM 27.4244 -97.4814 North 381 438 21,100 1,104 Climbing Houston Center
Mon 03:57:46 PM 27.5508 -97.4708 North 381 438 22,400 1,113 Climbing Houston Center
Mon 03:58:48 PM 27.6567 -97.4628 North 380 437 23,400 968 Climbing Houston Center
Mon 03:59:50 PM 27.7611 -97.4550 North 378 435 24,400 1,016 Climbing Houston Center
Mon 04:00:52 PM 27.8644 -97.4469 North 375 432 25,500 1,016 Climbing Houston Center
Mon 04:01:54 PM 27.9625 -97.4008 23° Northeast 373 429 26,500 726 Climbing Houston Center
Mon 04:02:56 PM 28.0506 -97.3325 34° Northeast 381 438 27,000 240 Climbing Houston Center
Mon 04:03:59 PM 28.1622 -97.2461 34° Northeast 400 460 27,000  Level Houston Center
Mon 04:05:01 PM 28.2617 -97.1700 34° Northeast 422 486 27,000  Level Houston Center
Mon 04:06:03 PM 28.3622 -97.0919 34° Northeast 435 501 27,000  Level Houston Center
Mon 04:07:05 PM 28.4650 -97.0136 34° Northeast 442 509 27,000  Level Houston Center
Mon 04:08:07 PM 28.5681 -96.9328 35° Northeast 450 518 27,000  Level Houston Center
Mon 04:09:09 PM 28.6728 -96.8522 34° Northeast 454 522 27,000 -726 Level Houston Center
Mon 04:10:11 PM 28.7978 -96.7544 34° Northeast 456 525 25,500 -1,452 Descending Houston Center
Mon 04:11:13 PM 28.9003 -96.6750 34° Northeast 451 519 24,000 -1,440 Descending Houston Center
Mon 04:12:16 PM 29.0011 -96.5958 34° Northeast 445 512 22,500 -1,680 Descending Houston Center
Mon 04:13:18 PM 29.1006 -96.5194 34° Northeast 440 506 20,500 -2,124 Descending Houston Center
Mon 04:14:09 PM 29.1956 -96.4425 35° Northeast 422 486 18,500 -2,129 Descending Houston Center
Mon 04:15:22 PM 29.3086 -96.3550 34° Northeast 414 476 16,100 -1,956 Descending Houston Center
Mon 04:16:24 PM 29.3994 -96.2833 34° Northeast 404 465 14,100 -1,854 Descending Houston Center
Mon 04:17:25 PM 29.4944 -96.2083 34° Northeast 391 450 12,300 -1,033 Descending Houston Center
Mon 04:18:26 PM 29.5686 -96.1183 47° Northeast 355 409 12,000 -738 Descending Houston Center
Mon 04:19:27 PM 29.6192 -96.0214 59° Northeast 352 405 10,800 -984 Descending Houston Center
Mon 04:20:28 PM 29.6589 -95.9233 65° Northeast 321 369 10,000 -390 Descending Houston Center
Mon 04:21:30 PM 29.7053 -95.8314 60° Northeast 339 390 10,000  Level Houston Center
Mon 04:22:37 PM 29.7664 -95.7297 55° Northeast 345 397 10,000 -512 Level Houston Center
Mon 04:23:39 PM 29.8044 -95.6472 62° Northeast 294 338 8,900 -1,258 Descending Houston Center
Mon 04:24:41 PM 29.8444 -95.5694 59° Northeast 282 325 7,400 -1,461 Descending Houston Center
Mon 04:25:34 PM 29.8811 -95.4956 60° Northeast 276 318 6,100 -700 Descending Houston Center
Mon 04:26:41 PM 29.8956 -95.3997 80° East 279 321 6,000 -49 Descending Houston Center
Mon 04:27:37 PM 29.8967 -95.3200 89° East 270 311 6,000  Level Houston Center
Mon 04:28:38 PM 29.8975 -95.2381 89° East 235 270 6,000 -246 Level Houston Center
Mon 04:29:39 PM 29.8964 -95.1586 91° East 238 274 5,500 -934 Descending Houston Center
Mon 04:30:40 PM 29.9042 -95.0853 83° East 240 276 4,100 -1,377 Descending Houston Center
Mon 04:31:41 PM 29.9639 -95.0950 352° North 232 267 2,700 -1,263 Descending Houston Center
Mon 04:31:56 PM 29.9703 -95.1033 312° West 228 262 2,500 -627 Descending Houston Center
Mon 04:32:48 PM 29.9936 -95.1661 293° West 231 266 2,000 -449 Descending Houston Center
Mon 04:33:43 PM 29.9933 -95.2311 270° West 223 257 1,700 -417 Descending Houston Center
Mon 04:34:00 PM 29.9933 -95.2403 270° West 223 257 1,500 -787 Descending Houston Center
Mon 04:34:44 PM 29.9942 -95.2867 271° West 157 181 900 -774 Descending Houston Center
Mon 04:35:02 PM 29.9942 -95.2944 270° West 194 223 700 -450 Descending Houston Center
Mon 04:36:04 PM 29.9939 -95.3422 270° West 163 188 300 -387 Descending Houston Center

Login

Don't have an account? Register now (free) for customized features, flight alerts, and more!